Airfield :
LOGIN :

Register | Disclaimer

   EN    FR    IT 

 










Legend :    VFR   Marginal VFR   IFR   Intensive IFR   Very Intensive IFR
Visi :
Ceiling :
>= 8 km
>= 3000ft
5 to 8 km
1000 to 3000 ft
1500m to 5 km
500 to 1000 ft
800 to 1500m
200 to 500 ft
< 800m
< 200 ft
Symbols :   Thunderstorms  Fog  Heavy snow  Heavy precipitations  Wind > 20 kt
SIGMETs :     Misc.  Thunderstorms  Icing  Turbulence  Mountain Waves  Volcanic Ashes






- Airport Elevation : 242 ft
- IATA code : DUB


EIDW - Dublin

CURRENT METAR :
  • 260230Z 29010KT CAVOK 02/01 Q1017 NOSIG

EXPIRED METARs :
  • 260200Z 29011KT CAVOK 02/01 Q1017 NOSIG
  • 260130Z 30009KT CAVOK 03/01 Q1017 NOSIG
  • 260100Z 29009KT CAVOK 03/02 Q1017 NOSIG
  • 260030Z 29011KT CAVOK 03/02 Q1017 NOSIG
  • 260000Z 28008KT CAVOK 04/02 Q1017 NOSIG

TAF TAF EIDW
Valid from the 26 at 00:00 until the 27 at 00:00 UTC


252300Z 2600/2624 29010KT 9999 FEW020
BECMG 2610/2612 35010KT
BECMG 2616/2618 31008KT



MET'MAP, your aeronautical weather chart ! - Copyright ORBIFLY December 2007 - Disclaimer

ORBIFLY MET'MAP TEAM :

Programming & Development : Alexandra Zaïnal
Concept & original design : Baudouin d'Aumeries
Assistance for programming : Marc-Olivier Méhu
Technical & hardware support : Manuel Goepfert

Contact : metmap@orbifly.com




SOURCES & CREDITS :

   NOAA